sensor_id;sensor_type;location;lat;lon;timestamp;pressure;altitude;pressure_sealevel;temperature;humidity
45113;BME280;30873;53.908;27.576;2023-03-21T00:03:31;1011.3;;;9.1;61.8
45113;BME280;30873;53.908;27.576;2023-03-21T00:08:49;1011.2;;;9.1;61.9
45113;BME280;30873;53.908;27.576;2023-03-21T00:13:41;1011.2;;;9.2;61.8
45113;BME280;30873;53.908;27.576;2023-03-21T00:19:21;1011.1;;;9.2;61.8
45113;BME280;30873;53.908;27.576;2023-03-21T00:24:13;1011;;;9.1;62.2
45113;BME280;30873;53.908;27.576;2023-03-21T00:29:21;1011;;;9.2;62.4
45113;BME280;30873;53.908;27.576;2023-03-21T00:33:47;1011;;;9.3;62.2
45113;BME280;30873;53.908;27.576;2023-03-21T00:39:21;1011.1;;;9.3;62.2
45113;BME280;30873;53.908;27.576;2023-03-21T00:43:41;1011;;;9.3;62.4
45113;BME280;30873;53.908;27.576;2023-03-21T00:49:05;1011;;;9.3;62.7
45113;BME280;30873;53.908;27.576;2023-03-21T00:54:01;1010.9;;;9.4;62.9
45113;BME280;30873;53.908;27.576;2023-03-21T00:58:41;1010.8;;;9.5;63
45113;BME280;30873;53.908;27.576;2023-03-21T01:04:11;1010.8;;;9.6;63
45113;BME280;30873;53.908;27.576;2023-03-21T01:08:55;1010.8;;;9.7;62.8
45113;BME280;30873;53.908;27.576;2023-03-21T01:14:11;1010.7;;;9.7;62.8
45113;BME280;30873;53.908;27.576;2023-03-21T01:19:01;1010.7;;;9.7;62.9
45113;BME280;30873;53.908;27.576;2023-03-21T01:24:05;1010.6;;;9.7;63
45113;BME280;30873;53.908;27.576;2023-03-21T01:28:45;1010.6;;;9.8;62.8
45113;BME280;30873;53.908;27.576;2023-03-21T01:34:11;1010.6;;;9.8;62.8
45113;BME280;30873;53.908;27.576;2023-03-21T01:39:01;1010.6;;;9.8;62.9
45113;BME280;30873;53.908;27.576;2023-03-21T01:43:57;1010.6;;;9.7;63.1
45113;BME280;30873;53.908;27.576;2023-03-21T01:49:02;1010.6;;;9.7;63.2
45113;BME280;30873;53.908;27.576;2023-03-21T01:54:20;1010.6;;;9.7;63.3
45113;BME280;30873;53.908;27.576;2023-03-21T01:59:20;1010.6;;;9.6;63.5
45113;BME280;30873;53.908;27.576;2023-03-21T02:03:44;1010.5;;;9.8;63.5
45113;BME280;30873;53.908;27.576;2023-03-21T02:08:32;1010.5;;;9.8;63.5
45113;BME280;30873;53.908;27.576;2023-03-21T02:14:19;1010.5;;;9.8;63.5
45113;BME280;30873;53.908;27.576;2023-03-21T02:19:04;1010.5;;;9.8;63.7
45113;BME280;30873;53.908;27.576;2023-03-21T02:23:45;1010.5;;;9.7;63.8
45113;BME280;30873;53.908;27.576;2023-03-21T02:28:58;1010.5;;;9.8;63.8
45113;BME280;30873;53.908;27.576;2023-03-21T02:34:32;1010.5;;;9.8;63.9
45113;BME280;30873;53.908;27.576;2023-03-21T02:38:32;1010.5;;;9.8;64
45113;BME280;30873;53.908;27.576;2023-03-21T02:43:58;1010.5;;;9.8;64.2
45113;BME280;30873;53.908;27.576;2023-03-21T02:49:20;1010.5;;;9.9;64.2
45113;BME280;30873;53.908;27.576;2023-03-21T02:53:44;1010.5;;;9.9;64.1
45113;BME280;30873;53.908;27.576;2023-03-21T02:58:53;1010.5;;;9.9;64.4
45113;BME280;30873;53.908;27.576;2023-03-21T03:04:16;1010.5;;;10.1;64.4
45113;BME280;30873;53.908;27.576;2023-03-21T03:08:41;1010.4;;;10.2;64.2
45113;BME280;30873;53.908;27.576;2023-03-21T03:14:07;1010.4;;;10.2;64.4
45113;BME280;30873;53.908;27.576;2023-03-21T03:18:33;1010.4;;;10.2;64.7
45113;BME280;30873;53.908;27.576;2023-03-21T03:24:20;1010.5;;;10.3;64.6
45113;BME280;30873;53.908;27.576;2023-03-21T03:29:12;1010.4;;;10.2;64.5
45113;BME280;30873;53.908;27.576;2023-03-21T03:34:20;1010.5;;;10.2;64.8
45113;BME280;30873;53.908;27.576;2023-03-21T03:38:31;1010.5;;;10.2;65.1
45113;BME280;30873;53.908;27.576;2023-03-21T03:44:19;1010.5;;;10.4;65.3
45113;BME280;30873;53.908;27.576;2023-03-21T03:48:42;1010.5;;;10.5;65.4
45113;BME280;30873;53.908;27.576;2023-03-21T03:53:50;1010.5;;;10.6;65.2
45113;BME280;30873;53.908;27.576;2023-03-21T03:58:31;1010.5;;;10.8;65.3
45113;BME280;30873;53.908;27.576;2023-03-21T04:03:31;1010.5;;;10.7;65.9
45113;BME280;30873;53.908;27.576;2023-03-21T04:08:49;1010.6;;;10.6;66.9
45113;BME280;30873;53.908;27.576;2023-03-21T04:13:47;1010.6;;;10.5;67.6
45113;BME280;30873;53.908;27.576;2023-03-21T04:18:31;1010.6;;;10.4;68.2
45113;BME280;30873;53.908;27.576;2023-03-21T04:24:19;1010.6;;;10.4;68.8
45113;BME280;30873;53.908;27.576;2023-03-21T04:29:19;1010.6;;;10.4;69.2
45113;BME280;30873;53.908;27.576;2023-03-21T04:33:39;1010.6;;;10.5;69.4
45113;BME280;30873;53.908;27.576;2023-03-21T04:39:09;1010.7;;;10.4;69.5
45113;BME280;30873;53.908;27.576;2023-03-21T04:43:59;1010.7;;;10.3;69.7
45113;BME280;30873;53.908;27.576;2023-03-21T04:48:53;1010.8;;;10.2;70
45113;BME280;30873;53.908;27.576;2023-03-21T04:53:39;1010.8;;;10.2;70.2
45113;BME280;30873;53.908;27.576;2023-03-21T04:59:05;1010.8;;;10.2;70.5
45113;BME280;30873;53.908;27.576;2023-03-21T05:04:19;1010.9;;;10.4;70.5
45113;BME280;30873;53.908;27.576;2023-03-21T05:09:21;1010.8;;;10.4;70.3
45113;BME280;30873;53.908;27.576;2023-03-21T05:13:31;1010.8;;;10.5;70.2
45113;BME280;30873;53.908;27.576;2023-03-21T05:19:22;1010.9;;;10.5;70.2
45113;BME280;30873;53.908;27.576;2023-03-21T05:24:03;1010.9;;;10.5;70.1
45113;BME280;30873;53.908;27.576;2023-03-21T05:28:41;1011;;;10.6;70
45113;BME280;30873;53.908;27.576;2023-03-21T05:33:57;1011;;;10.6;69.5
45113;BME280;30873;53.908;27.576;2023-03-21T05:39:19;1011;;;10.6;69.3
45113;BME280;30873;53.908;27.576;2023-03-21T05:43:31;1011;;;10.6;69.2
45113;BME280;30873;53.908;27.576;2023-03-21T05:48:55;1011.1;;;10.6;68.7
45113;BME280;30873;53.908;27.576;2023-03-21T05:54:19;1011.1;;;10.4;68.4
45113;BME280;30873;53.908;27.576;2023-03-21T05:58:31;1011.1;;;10.4;68.5
45113;BME280;30873;53.908;27.576;2023-03-21T06:03:51;1011.2;;;10.3;68.4
45113;BME280;30873;53.908;27.576;2023-03-21T06:09:03;1011.2;;;10.4;68.3
45113;BME280;30873;53.908;27.576;2023-03-21T06:14:03;1011.2;;;10.4;68.1
45113;BME280;30873;53.908;27.576;2023-03-21T06:18:33;1011.4;;;10.3;67.7
45113;BME280;30873;53.908;27.576;2023-03-21T06:23:45;1011.4;;;10.2;67.9
45113;BME280;30873;53.908;27.576;2023-03-21T06:29:19;1011.4;;;10.2;68.1
45113;BME280;30873;53.908;27.576;2023-03-21T06:34:11;1011.4;;;10.1;68
45113;BME280;30873;53.908;27.576;2023-03-21T06:39:19;1011.4;;;10.2;68.3
45113;BME280;30873;53.908;27.576;2023-03-21T06:43:47;1011.4;;;10.5;67.9
45113;BME280;30873;53.908;27.576;2023-03-21T06:48:33;1011.4;;;10.6;67.5
45113;BME280;30873;53.908;27.576;2023-03-21T06:53:31;1011.5;;;10.9;66.9
45113;BME280;30873;53.908;27.576;2023-03-21T06:59:03;1011.6;;;10.7;66.6
45113;BME280;30873;53.908;27.576;2023-03-21T07:03:53;1011.6;;;10.7;67.1
45113;BME280;30873;53.908;27.576;2023-03-21T07:08:31;1011.6;;;11;66.6
45113;BME280;30873;53.908;27.576;2023-03-21T07:13:49;1011.5;;;11.3;65.8
45113;BME280;30873;53.908;27.576;2023-03-21T07:18:45;1011.4;;;11.3;65.1
45113;BME280;30873;53.908;27.576;2023-03-21T07:24:11;1011.4;;;11.6;64.4
45113;BME280;30873;53.908;27.576;2023-03-21T07:29:19;1011.4;;;12;63.9
45113;BME280;30873;53.908;27.576;2023-03-21T07:34:19;1011.4;;;12.4;63.1
45113;BME280;30873;53.908;27.576;2023-03-21T07:38:31;1011.5;;;12.4;61.5
45113;BME280;30873;53.908;27.576;2023-03-21T07:44:11;1011.5;;;11.9;61.5
45113;BME280;30873;53.908;27.576;2023-03-21T07:49:01;1011.5;;;12;61.3
45113;BME280;30873;53.908;27.576;2023-03-21T07:53:31;1011.5;;;12.4;60.5
45113;BME280;30873;53.908;27.576;2023-03-21T07:58:53;1011.6;;;12.7;59.9
45113;BME280;30873;53.908;27.576;2023-03-21T08:04:03;1011.5;;;13;58.1
45113;BME280;30873;53.908;27.576;2023-03-21T08:09:19;1011.6;;;13.3;57.5
45113;BME280;30873;53.908;27.576;2023-03-21T08:14:21;1011.6;;;13.3;56.8
45113;BME280;30873;53.908;27.576;2023-03-21T08:18:31;1011.7;;;13.2;57
45113;BME280;30873;53.908;27.576;2023-03-21T08:24:19;1011.7;;;13;57.7
45113;BME280;30873;53.908;27.576;2023-03-21T08:29:01;1011.7;;;12.8;57.9
45113;BME280;30873;53.908;27.576;2023-03-21T08:33:31;1011.8;;;12.7;58.3
45113;BME280;30873;53.908;27.576;2023-03-21T08:39:04;1011.8;;;12.5;58.7
45113;BME280;30873;53.908;27.576;2023-03-21T08:44:11;1011.9;;;12.6;58.8
45113;BME280;30873;53.908;27.576;2023-03-21T08:48:31;1011.8;;;12.9;58.4
45113;BME280;30873;53.908;27.576;2023-03-21T08:54:03;1011.9;;;13;57.6
45113;BME280;30873;53.908;27.576;2023-03-21T08:59:19;1011.9;;;13.1;57.1
45113;BME280;30873;53.908;27.576;2023-03-21T09:03:39;1011.9;;;13.1;57.3
45113;BME280;30873;53.908;27.576;2023-03-21T09:09:19;1012;;;13;57.2
45113;BME280;30873;53.908;27.576;2023-03-21T09:14:01;1012.1;;;12.9;57.7
45113;BME280;30873;53.908;27.576;2023-03-21T09:18:39;1012.2;;;12.9;57.6
45113;BME280;30873;53.908;27.576;2023-03-21T09:23:55;1012.2;;;12.9;57.2
45113;BME280;30873;53.908;27.576;2023-03-21T09:29:03;1012.2;;;12.9;56.8
45113;BME280;30873;53.908;27.576;2023-03-21T09:34:17;1012.3;;;13.2;56
45113;BME280;30873;53.908;27.576;2023-03-21T09:38:55;1012.3;;;13.7;54.8
45113;BME280;30873;53.908;27.576;2023-03-21T09:44:23;1012.3;;;13.8;54.3
45113;BME280;30873;53.908;27.576;2023-03-21T09:48:56;1012.3;;;13.5;54.9
45113;BME280;30873;53.908;27.576;2023-03-21T09:54:20;1012.4;;;13.4;55.2
45113;BME280;30873;53.908;27.576;2023-03-21T09:58:48;1012.4;;;13.2;55.5
45113;BME280;30873;53.908;27.576;2023-03-21T10:04:04;1012.4;;;12.8;56.4
45113;BME280;30873;53.908;27.576;2023-03-21T10:08:54;1012.4;;;12.6;56.9
45113;BME280;30873;53.908;27.576;2023-03-21T10:13:32;1012.5;;;12.7;57.2
45113;BME280;30873;53.908;27.576;2023-03-21T10:19:12;1012.5;;;12.9;56.6
45113;BME280;30873;53.908;27.576;2023-03-21T10:23:45;1012.5;;;12.9;56.1
45113;BME280;30873;53.908;27.576;2023-03-21T10:28:32;1012.5;;;12.6;56.6
45113;BME280;30873;53.908;27.576;2023-03-21T10:34:24;1012.5;;;12.6;56.9
45113;BME280;30873;53.908;27.576;2023-03-21T10:39:20;1012.5;;;12.5;57.3
45113;BME280;30873;53.908;27.576;2023-03-21T10:43:33;1012.6;;;12.3;57.8
45113;BME280;30873;53.908;27.576;2023-03-21T10:49:13;1012.7;;;12;58.4
45113;BME280;30873;53.908;27.576;2023-03-21T10:54:10;1012.8;;;11.9;59
45113;BME280;30873;53.908;27.576;2023-03-21T10:58:49;1012.8;;;11.8;59.2
45113;BME280;30873;53.908;27.576;2023-03-21T11:03:56;1012.8;;;11.7;59.9
45113;BME280;30873;53.908;27.576;2023-03-21T11:08:50;1012.8;;;11.8;60.3
45113;BME280;30873;53.908;27.576;2023-03-21T11:14:23;1012.9;;;11.6;60.8
45113;BME280;30873;53.908;27.576;2023-03-21T11:19:25;1012.8;;;11.4;61.2
45113;BME280;30873;53.908;27.576;2023-03-21T11:23:40;1012.8;;;11.4;61.4
45113;BME280;30873;53.908;27.576;2023-03-21T11:29:22;1012.7;;;11.9;60.2
45113;BME280;30873;53.908;27.576;2023-03-21T11:34:04;1012.7;;;12.1;59.1
45113;BME280;30873;53.908;27.576;2023-03-21T11:38:33;1012.7;;;12.2;58.8
45113;BME280;30873;53.908;27.576;2023-03-21T11:43:58;1012.7;;;12.2;58.9
45113;BME280;30873;53.908;27.576;2023-03-21T11:49:11;1012.8;;;12.1;59
45113;BME280;30873;53.908;27.576;2023-03-21T11:53:33;1012.8;;;11.9;59.6
45113;BME280;30873;53.908;27.576;2023-03-21T11:59:11;1012.8;;;12;60
45113;BME280;30873;53.908;27.576;2023-03-21T12:04:20;1012.8;;;11.8;60.6
45113;BME280;30873;53.908;27.576;2023-03-21T12:08:58;1012.8;;;11.7;60.8
45113;BME280;30873;53.908;27.576;2023-03-21T12:14:21;1012.9;;;11.7;60.7
45113;BME280;30873;53.908;27.576;2023-03-21T12:18:50;1012.8;;;11.9;60.2
45113;BME280;30873;53.908;27.576;2023-03-21T12:23:57;1012.7;;;12.6;58.5
45113;BME280;30873;53.908;27.576;2023-03-21T12:29:20;1012.7;;;13.3;56.3
45113;BME280;30873;53.908;27.576;2023-03-21T12:33:41;1012.7;;;13.3;55.5
45113;BME280;30873;53.908;27.576;2023-03-21T12:38:40;1012.7;;;13;55.5
45113;BME280;30873;53.908;27.576;2023-03-21T12:44:12;1012.7;;;13.2;54.9
45113;BME280;30873;53.908;27.576;2023-03-21T12:49:21;1012.7;;;13.4;54.2
45113;BME280;30873;53.908;27.576;2023-03-21T12:54:13;1012.7;;;13.5;53.7
45113;BME280;30873;53.908;27.576;2023-03-21T12:58:32;1012.7;;;13.1;54.1
45113;BME280;30873;53.908;27.576;2023-03-21T13:04:26;1012.6;;;12.7;55.1
45113;BME280;30873;53.908;27.576;2023-03-21T13:09:30;1012.6;;;12.6;55.3
45113;BME280;30873;53.908;27.576;2023-03-21T13:13:55;1012.7;;;12.4;55.8
45113;BME280;30873;53.908;27.576;2023-03-21T13:19:13;1012.7;;;12.3;56.2
45113;BME280;30873;53.908;27.576;2023-03-21T13:24:16;1012.8;;;12.4;55.9
45113;BME280;30873;53.908;27.576;2023-03-21T13:28:45;1012.8;;;12.3;56
45113;BME280;30873;53.908;27.576;2023-03-21T13:33:58;1012.8;;;12.4;56.1
45113;BME280;30873;53.908;27.576;2023-03-21T13:39:23;1012.8;;;12.8;55.6
45113;BME280;30873;53.908;27.576;2023-03-21T13:44:23;1012.8;;;12.9;55.1
45113;BME280;30873;53.908;27.576;2023-03-21T13:48:43;1012.8;;;12.7;55.3
45113;BME280;30873;53.908;27.576;2023-03-21T13:54:16;1012.8;;;12.6;55.7
45113;BME280;30873;53.908;27.576;2023-03-21T13:59:03;1012.8;;;12.5;55.9
45113;BME280;30873;53.908;27.576;2023-03-21T14:03:42;1012.9;;;12.2;56.2
45113;BME280;30873;53.908;27.576;2023-03-21T14:08:55;1012.9;;;12.1;56.7
45113;BME280;30873;53.908;27.576;2023-03-21T14:14:05;1012.9;;;12.1;56.5
45113;BME280;30873;53.908;27.576;2023-03-21T14:19:27;1012.8;;;12.3;56.1
45113;BME280;30873;53.908;27.576;2023-03-21T14:24:21;1012.9;;;12.3;55.9
45113;BME280;30873;53.908;27.576;2023-03-21T14:28:48;1012.9;;;12.3;55.6
45113;BME280;30873;53.908;27.576;2023-03-21T14:34:20;1012.9;;;12.3;55.4
45113;BME280;30873;53.908;27.576;2023-03-21T14:39:03;1012.9;;;12.3;55.5
45113;BME280;30873;53.908;27.576;2023-03-21T14:43:31;1013;;;12.3;55.4
45113;BME280;30873;53.908;27.576;2023-03-21T14:49:08;1013;;;12.4;55.4
45113;BME280;30873;53.908;27.576;2023-03-21T14:54:12;1013;;;12.5;55.3
45113;BME280;30873;53.908;27.576;2023-03-21T14:58:38;1013;;;12.6;55
45113;BME280;30873;53.908;27.576;2023-03-21T15:04:04;1013;;;12.5;55.1
45113;BME280;30873;53.908;27.576;2023-03-21T15:09:20;1012.9;;;12.4;55.2
45113;BME280;30873;53.908;27.576;2023-03-21T15:14:13;1012.9;;;12.5;55.2
45113;BME280;30873;53.908;27.576;2023-03-21T15:19:24;1013;;;12.4;55.3
45113;BME280;30873;53.908;27.576;2023-03-21T15:23:48;1013;;;12.4;55.5
45113;BME280;30873;53.908;27.576;2023-03-21T15:28:58;1013.1;;;12.7;54.9
45113;BME280;30873;53.908;27.576;2023-03-21T15:34:03;1013.1;;;12.7;54.5
45113;BME280;30873;53.908;27.576;2023-03-21T15:38:47;1013.1;;;12.5;54.4
45113;BME280;30873;53.908;27.576;2023-03-21T15:43:37;1013.1;;;12.3;53.8
45113;BME280;30873;53.908;27.576;2023-03-21T15:49:19;1013.2;;;12.2;53
45113;BME280;30873;53.908;27.576;2023-03-21T15:54:22;1013.2;;;12.2;52.7
45113;BME280;30873;53.908;27.576;2023-03-21T15:58:47;1013.3;;;12.1;52
45113;BME280;30873;53.908;27.576;2023-03-21T16:03:46;1013.3;;;12;51.7
45113;BME280;30873;53.908;27.576;2023-03-21T16:09:22;1013.4;;;11.8;51.7
45113;BME280;30873;53.908;27.576;2023-03-21T16:14:22;1013.4;;;11.8;51.5
45113;BME280;30873;53.908;27.576;2023-03-21T16:18:46;1013.5;;;11.9;51.3
45113;BME280;30873;53.908;27.576;2023-03-21T16:23:41;1013.6;;;11.9;51.3
45113;BME280;30873;53.908;27.576;2023-03-21T16:29:21;1013.6;;;11.9;51.2
45113;BME280;30873;53.908;27.576;2023-03-21T16:34:03;1013.6;;;11.8;51.1
45113;BME280;30873;53.908;27.576;2023-03-21T16:38:58;1013.6;;;11.8;51.2
45113;BME280;30873;53.908;27.576;2023-03-21T16:43:42;1013.6;;;11.8;50.9
45113;BME280;30873;53.908;27.576;2023-03-21T16:49:01;1013.7;;;11.8;50.9
45113;BME280;30873;53.908;27.576;2023-03-21T16:53:31;1013.7;;;11.7;51
45113;BME280;30873;53.908;27.576;2023-03-21T16:58:57;1013.8;;;11.7;50.7
45113;BME280;30873;53.908;27.576;2023-03-21T17:04:19;1013.8;;;11.8;50.7
45113;BME280;30873;53.908;27.576;2023-03-21T17:08:31;1013.8;;;11.8;50.6
45113;BME280;30873;53.908;27.576;2023-03-21T17:14:14;1013.9;;;11.7;50.6
45113;BME280;30873;53.908;27.576;2023-03-21T17:19:09;1014;;;11.7;50.6
45113;BME280;30873;53.908;27.576;2023-03-21T17:23:55;1014;;;11.8;50.6
45113;BME280;30873;53.908;27.576;2023-03-21T17:29:04;1014.1;;;11.8;50.4
45113;BME280;30873;53.908;27.576;2023-03-21T17:33:47;1014.1;;;11.8;50.4
45113;BME280;30873;53.908;27.576;2023-03-21T17:39:22;1014.1;;;11.7;50.5
45113;BME280;30873;53.908;27.576;2023-03-21T17:44:04;1014.2;;;11.6;50.9
45113;BME280;30873;53.908;27.576;2023-03-21T17:48:42;1014.2;;;11.5;51.1
45113;BME280;30873;53.908;27.576;2023-03-21T17:53:58;1014.2;;;11.4;51.6
45113;BME280;30873;53.908;27.576;2023-03-21T17:59:14;1014.3;;;11.3;52.2
45113;BME280;30873;53.908;27.576;2023-03-21T18:04:05;1014.3;;;11.1;52.8
45113;BME280;30873;53.908;27.576;2023-03-21T18:09:21;1014.4;;;11.1;53
45113;BME280;30873;53.908;27.576;2023-03-21T18:14:21;1014.4;;;11.1;53.1
45113;BME280;30873;53.908;27.576;2023-03-21T18:18:56;1014.4;;;11;53.5
45113;BME280;30873;53.908;27.576;2023-03-21T18:24:21;1014.5;;;11;53.7
45113;BME280;30873;53.908;27.576;2023-03-21T18:28:48;1014.6;;;11.1;53.7
45113;BME280;30873;53.908;27.576;2023-03-21T18:33:32;1014.6;;;11.1;53.6
45113;BME280;30873;53.908;27.576;2023-03-21T18:38:57;1014.6;;;11.1;53.7
45113;BME280;30873;53.908;27.576;2023-03-21T18:43:47;1014.6;;;11.1;53.7
45113;BME280;30873;53.908;27.576;2023-03-21T18:48:41;1014.6;;;11.1;53.7
45113;BME280;30873;53.908;27.576;2023-03-21T18:54:13;1014.7;;;11.1;54
45113;BME280;30873;53.908;27.576;2023-03-21T18:59:21;1014.7;;;11;54.1
45113;BME280;30873;53.908;27.576;2023-03-21T19:03:58;1014.7;;;11.1;54
45113;BME280;30873;53.908;27.576;2023-03-21T19:08:41;1014.7;;;11.1;53.9
45113;BME280;30873;53.908;27.576;2023-03-21T19:14:21;1014.7;;;11;53.7
45113;BME280;30873;53.908;27.576;2023-03-21T19:19:21;1014.6;;;11;53.8
45113;BME280;30873;53.908;27.576;2023-03-21T19:23:56;1014.6;;;11;53.5
45113;BME280;30873;53.908;27.576;2023-03-21T19:28:32;1014.7;;;11;53.3
45113;BME280;30873;53.908;27.576;2023-03-21T19:34:21;1014.7;;;10.9;53.2
45113;BME280;30873;53.908;27.576;2023-03-21T19:39:03;1014.7;;;10.9;53
45113;BME280;30873;53.908;27.576;2023-03-21T19:43:32;1014.7;;;11;52.6
45113;BME280;30873;53.908;27.576;2023-03-21T19:48:41;1014.8;;;11;52.5
45113;BME280;30873;53.908;27.576;2023-03-21T19:54:22;1014.8;;;10.9;52.3
45113;BME280;30873;53.908;27.576;2023-03-21T19:59:05;1014.8;;;10.9;52.3
45113;BME280;30873;53.908;27.576;2023-03-21T20:03:58;1014.8;;;10.9;52.4
45113;BME280;30873;53.908;27.576;2023-03-21T20:09:22;1014.8;;;10.9;52.4
45113;BME280;30873;53.908;27.576;2023-03-21T20:13:46;1014.8;;;11;52.1
45113;BME280;30873;53.908;27.576;2023-03-21T20:18:56;1014.8;;;11;52
45113;BME280;30873;53.908;27.576;2023-03-21T20:24:06;1014.8;;;11;52
45113;BME280;30873;53.908;27.576;2023-03-21T20:29:06;1014.8;;;10.9;52.1
45113;BME280;30873;53.908;27.576;2023-03-21T20:34:04;1014.8;;;10.9;52.3
45113;BME280;30873;53.908;27.576;2023-03-21T20:38:48;1014.8;;;10.9;52.3
45113;BME280;30873;53.908;27.576;2023-03-21T20:44:22;1014.8;;;10.9;52.4
45113;BME280;30873;53.908;27.576;2023-03-21T20:49:14;1014.8;;;10.9;52.7
45113;BME280;30873;53.908;27.576;2023-03-21T20:54:22;1014.8;;;10.8;52.9
45113;BME280;30873;53.908;27.576;2023-03-21T20:58:58;1014.9;;;10.8;53
45113;BME280;30873;53.908;27.576;2023-03-21T21:04:22;1014.9;;;10.8;53.1
45113;BME280;30873;53.908;27.576;2023-03-21T21:08:32;1014.9;;;10.8;53
45113;BME280;30873;53.908;27.576;2023-03-21T21:14:08;1014.9;;;10.7;53.1
45113;BME280;30873;53.908;27.576;2023-03-21T21:18:34;1014.9;;;10.9;53
45113;BME280;30873;53.908;27.576;2023-03-21T21:23:52;1014.9;;;10.9;52.9
45113;BME280;30873;53.908;27.576;2023-03-21T21:29:26;1014.9;;;10.9;52.8
45113;BME280;30873;53.908;27.576;2023-03-21T21:33:42;1014.9;;;11;52.7
45113;BME280;30873;53.908;27.576;2023-03-21T21:38:52;1014.9;;;11;52.7
45113;BME280;30873;53.908;27.576;2023-03-21T21:43:34;1015;;;11;52.7
45113;BME280;30873;53.908;27.576;2023-03-21T21:48:52;1015;;;11.1;52.7
45113;BME280;30873;53.908;27.576;2023-03-21T21:54:26;1015;;;11.2;52.3
45113;BME280;30873;53.908;27.576;2023-03-21T21:59:08;1015;;;11.2;52.1
45113;BME280;30873;53.908;27.576;2023-03-21T22:03:54;1015.1;;;11;52.3
45113;BME280;30873;53.908;27.576;2023-03-21T22:09:16;1015.1;;;11;52.5
45113;BME280;30873;53.908;27.576;2023-03-21T22:13:54;1015.2;;;10.9;52.7
45113;BME280;30873;53.908;27.576;2023-03-21T22:19:26;1015.2;;;10.9;52.7
45113;BME280;30873;53.908;27.576;2023-03-21T22:23:56;1015.2;;;10.8;53.1
45113;BME280;30873;53.908;27.576;2023-03-21T22:28:52;1015.2;;;10.8;53.4
45113;BME280;30873;53.908;27.576;2023-03-21T22:34:14;1015.2;;;10.7;53.6
45113;BME280;30873;53.908;27.576;2023-03-21T22:38:54;1015.2;;;10.6;54.2
45113;BME280;30873;53.908;27.576;2023-03-21T22:44:28;1015.2;;;10.6;54.4
45113;BME280;30873;53.908;27.576;2023-03-21T22:48:32;1015.2;;;10.6;54.5
45113;BME280;30873;53.908;27.576;2023-03-21T22:53:42;1015.1;;;10.6;54.9
45113;BME280;30873;53.908;27.576;2023-03-21T22:59:14;1015.2;;;10.5;55.2
45113;BME280;30873;53.908;27.576;2023-03-21T23:03:52;1015.2;;;10.4;55.5
45113;BME280;30873;53.908;27.576;2023-03-21T23:09:26;1015.3;;;10.4;55.7
45113;BME280;30873;53.908;27.576;2023-03-21T23:13:46;1015.3;;;10.4;56.2
45113;BME280;30873;53.908;27.576;2023-03-21T23:18:32;1015.3;;;10.4;56.4
45113;BME280;30873;53.908;27.576;2023-03-21T23:24:16;1015.4;;;10.4;56.5
45113;BME280;30873;53.908;27.576;2023-03-21T23:28:32;1015.4;;;10.4;56.6
45113;BME280;30873;53.908;27.576;2023-03-21T23:34:24;1015.5;;;10.4;56.8
45113;BME280;30873;53.908;27.576;2023-03-21T23:39:08;1015.5;;;10.3;57.3
45113;BME280;30873;53.908;27.576;2023-03-21T23:44:26;1015.4;;;10.3;57.6
45113;BME280;30873;53.908;27.576;2023-03-21T23:49:14;1015.4;;;10.3;58
45113;BME280;30873;53.908;27.576;2023-03-21T23:53:54;1015.4;;;10.3;58.1
45113;BME280;30873;53.908;27.576;2023-03-21T23:59:28;1015.3;;;10.3;58.4
